Terminal Aerodrome Forecast
Issued by NWS Brownsville, TX

Home | Current Version | Previous Version | Text Only | Print | Product List | Glossary On
Versions: 1 2 3 4 5 6 7 8 9 10 11 12 13 14 15 16 17 18 19
566
FTUS44 KBRO 010539
TAFMFE
TAF
KMFE 010539Z 0106/0206 09008KT P6SM SCT250
      TEMPO 0106/0109 4SM BR BKN015
     FM010900 13003KT 2SM BR BKN015
     FM011500 11009KT 4SM HZ BKN020
     FM011800 12012KT 6SM HZ SCT030
     FM020500 12009KT 5SM BR BKN025=

USA.gov is the U.S. government's official web portal to all federal, state and local government web resources and services.